Time;durP1;ratioP1;P1;durP2;ratioP2;P2;SDS_P1;SDS_P2;PMS_P1;PMS_P2;Temp;Humidity;BMP_temperature;BMP_pressure;BME280_temperature;BME280_humidity;BME280_pressure;Samples;Min_cycle;Max_cycle;Signal;HPM_P1;HPM_P2
2023/06/24 00:02:11;;;;;;;14.05;9.98;;;19.40;99.90;;;;;;4934711;29;20179;-75
2023/06/24 00:04:37;;;;;;;15.20;11.18;;;19.40;99.90;;;;;;4933728;29;20184;-77
2023/06/24 00:07:03;;;;;;;17.13;11.20;;;19.30;99.90;;;;;;4917346;29;20597;-76
2023/06/24 00:09:29;;;;;;;18.73;11.65;;;19.30;99.90;;;;;;4930367;29;20219;-76
2023/06/24 00:11:56;;;;;;;18.23;11.65;;;19.30;99.90;;;;;;4932206;29;20183;-76
2023/06/24 00:14:24;;;;;;;16.45;11.93;;;19.30;99.90;;;;;;4918887;29;20230;-76
2023/06/24 00:16:51;;;;;;;19.05;12.23;;;19.20;99.90;;;;;;4938900;29;20171;-76
2023/06/24 00:19:21;;;;;;;17.35;11.27;;;19.20;99.90;;;;;;4930304;29;20680;-76
2023/06/24 00:21:48;;;;;;;16.80;12.98;;;19.20;99.90;;;;;;4887775;29;20222;-76
2023/06/24 00:24:14;;;;;;;19.55;12.88;;;19.20;99.90;;;;;;4933687;29;20242;-76
2023/06/24 00:26:39;;;;;;;18.58;12.45;;;19.20;99.90;;;;;;4911222;29;20611;-75
2023/06/24 00:29:05;;;;;;;21.73;12.32;;;19.10;99.90;;;;;;4920257;29;20184;-77
2023/06/24 00:31:31;;;;;;;19.50;13.18;;;19.10;99.90;;;;;;4937505;29;20659;-76
2023/06/24 00:33:57;;;;;;;19.42;13.18;;;19.10;99.90;;;;;;4903660;29;20236;-76
2023/06/24 00:36:23;;;;;;;21.10;14.40;;;19.10;99.90;;;;;;4883813;29;20660;-75
2023/06/24 00:38:48;;;;;;;21.27;13.85;;;19.00;99.90;;;;;;4904846;29;20184;-76
2023/06/24 00:41:18;;;;;;;17.85;13.15;;;19.00;99.90;;;;;;4899481;29;20276;-75
2023/06/24 00:43:45;;;;;;;24.13;13.93;;;19.00;99.90;;;;;;4900600;29;20208;-75
2023/06/24 00:46:11;;;;;;;20.05;13.50;;;19.00;99.90;;;;;;4898859;29;20204;-75
2023/06/24 00:48:39;;;;;;;20.10;13.70;;;19.10;99.90;;;;;;4883025;29;20204;-76
2023/06/24 00:51:05;;;;;;;22.77;12.93;;;19.00;99.90;;;;;;4897396;29;20184;-76
2023/06/24 00:53:30;;;;;;;19.10;13.50;;;19.00;99.90;;;;;;4897745;29;20199;-76
2023/06/24 00:56:02;;;;;;;18.13;12.98;;;19.00;99.90;;;;;;4896566;29;20189;-77
2023/06/24 00:58:30;;;;;;;19.02;12.60;;;18.90;99.90;;;;;;4891409;29;20199;-77
2023/06/24 01:00:58;;;;;;;15.85;12.27;;;18.90;99.90;;;;;;4907413;29;20280;-76
2023/06/24 01:03:25;;;;;;;21.25;12.13;;;18.90;99.90;;;;;;4894180;29;20193;-76
2023/06/24 01:05:52;;;;;;;17.33;10.60;;;18.90;99.90;;;;;;4892798;29;20185;-76
2023/06/24 01:08:19;;;;;;;14.93;10.63;;;18.90;99.90;;;;;;4895156;29;20188;-76
2023/06/24 01:10:45;;;;;;;17.70;12.27;;;18.80;99.90;;;;;;4881789;29;20200;-76
2023/06/24 01:13:11;;;;;;;24.60;15.20;;;18.80;99.90;;;;;;4891695;29;20641;-78
2023/06/24 01:15:37;;;;;;;24.92;15.90;;;18.70;99.90;;;;;;4897542;29;20216;-76
2023/06/24 01:18:10;;;;;;;25.33;16.10;;;18.70;99.90;;;;;;4895732;29;20184;-75
2023/06/24 01:20:52;;;;;;;24.98;15.98;;;18.70;99.90;;;;;;4895993;29;20692;-81
2023/06/24 01:23:41;;;;;;;21.98;14.65;;;18.60;99.90;;;;;;4897075;29;20173;-76
2023/06/24 01:26:43;;;;;;;21.00;14.18;;;18.70;99.90;;;;;;4896514;29;20219;-76
2023/06/24 01:29:27;;;;;;;21.40;14.45;;;18.60;99.90;;;;;;4895065;29;20195;-76
2023/06/24 01:32:02;;;;;;;20.60;13.00;;;18.60;99.90;;;;;;4898337;29;20264;-76
2023/06/24 01:34:40;;;;;;;22.05;14.20;;;18.50;99.90;;;;;;4931566;29;20227;-75
2023/06/24 01:37:17;;;;;;;18.45;12.68;;;18.50;99.90;;;;;;4937286;29;20239;-75
2023/06/24 01:39:54;;;;;;;19.67;12.70;;;18.60;99.90;;;;;;4930996;29;20266;-75
2023/06/24 01:42:21;;;;;;;15.50;11.63;;;18.50;99.90;;;;;;4926595;29;20623;-75
2023/06/24 01:44:49;;;;;;;17.38;12.00;;;18.60;99.90;;;;;;4918930;29;20194;-76
2023/06/24 01:47:21;;;;;;;21.73;13.40;;;18.60;99.90;;;;;;4893256;29;20191;-77
2023/06/24 01:49:50;;;;;;;23.02;15.60;;;18.60;99.90;;;;;;4935045;29;20183;-76
2023/06/24 01:52:20;;;;;;;24.10;15.80;;;18.60;99.90;;;;;;4918964;29;20180;-76
2023/06/24 01:54:49;;;;;;;27.05;17.60;;;18.60;99.90;;;;;;4919905;29;20198;-79
2023/06/24 01:57:17;;;;;;;24.77;15.65;;;18.50;99.90;;;;;;4915297;29;20620;-77
2023/06/24 01:59:46;;;;;;;26.90;16.30;;;18.50;99.90;;;;;;4913294;29;20710;-76
2023/06/24 02:02:13;;;;;;;24.45;15.85;;;18.50;99.90;;;;;;4928679;29;20183;-76
2023/06/24 02:04:39;;;;;;;22.80;15.57;;;18.50;99.90;;;;;;4918162;29;20194;-76
2023/06/24 02:07:08;;;;;;;22.65;14.88;;;18.50;99.90;;;;;;4918331;29;20186;-78
2023/06/24 02:09:39;;;;;;;22.30;14.20;;;18.50;99.90;;;;;;4916969;29;20239;-75
2023/06/24 02:12:06;;;;;;;18.02;14.20;;;18.50;99.90;;;;;;4921767;29;20617;-77
2023/06/24 02:14:33;;;;;;;18.55;12.98;;;18.40;99.90;;;;;;4933626;29;20191;-77
2023/06/24 02:17:03;;;;;;;22.40;13.50;;;18.40;99.90;;;;;;4935635;29;20254;-76
2023/06/24 02:19:32;;;;;;;21.52;14.70;;;18.40;99.90;;;;;;4918557;29;20211;-74
2023/06/24 02:21:59;;;;;;;22.08;15.65;;;18.40;99.90;;;;;;4935096;29;20640;-79
2023/06/24 02:24:27;;;;;;;25.00;16.73;;;18.40;99.90;;;;;;4918529;29;20213;-75
2023/06/24 02:26:56;;;;;;;24.98;18.02;;;18.40;99.90;;;;;;4918785;29;20241;-76
2023/06/24 02:29:25;;;;;;;25.70;17.30;;;18.40;99.90;;;;;;4899853;29;20184;-77
2023/06/24 02:31:51;;;;;;;28.13;17.48;;;18.40;99.90;;;;;;4910323;29;20628;-78
2023/06/24 02:34:18;;;;;;;30.85;17.50;;;18.40;99.90;;;;;;4917663;29;20231;-75
2023/06/24 02:36:43;;;;;;;28.83;17.83;;;18.40;99.90;;;;;;4929256;29;20183;-78
2023/06/24 02:39:09;;;;;;;24.25;16.55;;;18.40;99.90;;;;;;4916407;29;20687;-75
2023/06/24 02:41:36;;;;;;;26.55;17.08;;;18.30;99.90;;;;;;4884536;29;20203;-76
2023/06/24 02:44:01;;;;;;;23.05;16.70;;;18.30;99.90;;;;;;4931692;29;20183;-75
2023/06/24 02:46:30;;;;;;;22.17;16.25;;;18.30;99.90;;;;;;4918860;29;20612;-76
2023/06/24 02:48:57;;;;;;;24.80;16.75;;;18.30;99.90;;;;;;4934142;29;20691;-75
2023/06/24 02:51:25;;;;;;;24.27;16.27;;;18.20;99.90;;;;;;4918356;29;20250;-76
2023/06/24 02:53:51;;;;;;;23.33;16.48;;;18.20;99.90;;;;;;4911729;29;20282;-75
2023/06/24 02:56:22;;;;;;;23.42;16.75;;;18.20;99.90;;;;;;4916631;29;20195;-75
2023/06/24 02:58:50;;;;;;;26.13;17.67;;;18.20;99.90;;;;;;4915570;29;20194;-75
2023/06/24 03:01:24;;;;;;;27.33;19.02;;;18.20;99.90;;;;;;4900767;29;20536;-76
2023/06/24 03:03:53;;;;;;;29.00;19.95;;;18.10;99.90;;;;;;4932902;29;20254;-76
2023/06/24 03:06:20;;;;;;;29.95;19.67;;;18.10;99.90;;;;;;4931519;29;20647;-78
2023/06/24 03:08:48;;;;;;;29.55;18.65;;;18.10;99.90;;;;;;4926328;29;20233;-76
2023/06/24 03:11:16;;;;;;;28.92;19.10;;;18.10;99.90;;;;;;4910478;29;20202;-76
2023/06/24 03:13:43;;;;;;;23.88;17.23;;;18.00;99.90;;;;;;4914315;29;20191;-76
2023/06/24 03:16:17;;;;;;;23.15;16.25;;;18.00;99.90;;;;;;4912212;29;20202;-76
2023/06/24 03:19:07;;;;;;;23.55;16.05;;;17.90;99.90;;;;;;4927684;29;20195;-77
2023/06/24 03:21:33;;;;;;;22.25;15.23;;;17.90;99.90;;;;;;4905752;29;20231;-77
2023/06/24 03:24:09;;;;;;;21.42;15.15;;;17.90;99.90;;;;;;4895898;29;20698;-77
2023/06/24 03:26:40;;;;;;;24.70;15.52;;;17.90;99.90;;;;;;4900698;29;20214;-76
2023/06/24 03:29:08;;;;;;;22.75;15.05;;;17.90;99.90;;;;;;4928296;29;20195;-75
2023/06/24 03:31:35;;;;;;;26.92;15.98;;;17.80;99.90;;;;;;4916601;29;20214;-75
2023/06/24 03:34:01;;;;;;;23.10;15.95;;;17.90;99.90;;;;;;4904487;29;20254;-75
2023/06/24 03:36:27;;;;;;;24.48;15.65;;;17.80;99.90;;;;;;4908433;29;20192;-75
2023/06/24 03:38:54;;;;;;;20.70;15.32;;;17.80;99.90;;;;;;4912103;29;20191;-78
2023/06/24 03:41:20;;;;;;;22.02;15.95;;;17.80;99.90;;;;;;4905767;29;20232;-76
2023/06/24 03:43:46;;;;;;;22.70;14.57;;;17.70;99.90;;;;;;4930862;29;20231;-75
2023/06/24 03:46:12;;;;;;;18.80;14.52;;;17.80;99.90;;;;;;4929584;29;20211;-75
2023/06/24 03:48:38;;;;;;;19.58;14.63;;;17.80;99.90;;;;;;4917487;29;20195;-75
2023/06/24 03:51:04;;;;;;;20.23;13.73;;;17.80;99.90;;;;;;4903083;29;20187;-76
2023/06/24 03:53:32;;;;;;;21.77;13.65;;;17.80;99.90;;;;;;4903406;29;20216;-76
2023/06/24 03:55:59;;;;;;;19.23;12.48;;;17.80;99.90;;;;;;4938272;29;20191;-75
2023/06/24 03:58:25;;;;;;;19.60;12.52;;;17.80;99.90;;;;;;4921169;29;20207;-75
2023/06/24 04:00:51;;;;;;;21.63;12.93;;;17.80;99.90;;;;;;4919803;29;20584;-75
2023/06/24 04:03:18;;;;;;;18.08;11.93;;;17.80;99.90;;;;;;4904836;29;20200;-75
2023/06/24 04:05:44;;;;;;;16.73;12.13;;;17.90;99.90;;;;;;4920215;29;20331;-77
2023/06/24 04:08:10;;;;;;;16.85;11.50;;;17.80;99.90;;;;;;4921638;29;20211;-75
2023/06/24 04:10:37;;;;;;;15.98;11.63;;;17.90;99.90;;;;;;4919450;29;20195;-77
2023/06/24 04:13:04;;;;;;;15.23;11.60;;;17.80;99.90;;;;;;4938232;29;20666;-77
2023/06/24 04:15:30;;;;;;;18.85;11.55;;;17.80;99.90;;;;;;4921395;29;20230;-75
2023/06/24 04:17:56;;;;;;;16.00;11.43;;;17.80;99.90;;;;;;4903477;29;20192;-75
2023/06/24 04:20:22;;;;;;;14.98;10.63;;;17.80;99.90;;;;;;4919672;29;20207;-75
2023/06/24 04:22:48;;;;;;;21.83;11.82;;;17.90;99.90;;;;;;4919948;29;20195;-76
2023/06/24 04:25:15;;;;;;;14.63;10.68;;;17.90;99.90;;;;;;4929166;29;20275;-77
2023/06/24 04:27:41;;;;;;;17.45;11.18;;;17.90;99.90;;;;;;4917600;29;20279;-76
2023/06/24 04:30:08;;;;;;;14.40;10.75;;;17.90;99.90;;;;;;4936862;29;20201;-75
2023/06/24 04:32:34;;;;;;;17.00;10.85;;;17.90;99.90;;;;;;4924083;29;20176;-79
2023/06/24 04:35:04;;;;;;;14.45;10.38;;;18.00;99.90;;;;;;4935962;29;20192;-78
2023/06/24 04:37:30;;;;;;;14.75;10.25;;;18.00;99.90;;;;;;4923381;29;20247;-76
2023/06/24 04:39:57;;;;;;;14.52;9.57;;;18.00;99.90;;;;;;4923940;29;20354;-76
2023/06/24 04:42:23;;;;;;;12.18;9.63;;;18.10;99.90;;;;;;4935180;29;20180;-76
2023/06/24 04:44:52;;;;;;;13.50;9.60;;;18.20;99.90;;;;;;4935623;29;20605;-76
2023/06/24 04:47:18;;;;;;;11.65;9.68;;;18.20;99.90;;;;;;4918832;29;20198;-75
2023/06/24 04:49:44;;;;;;;14.27;9.50;;;18.30;99.90;;;;;;4935958;29;20266;-75
2023/06/24 04:52:11;;;;;;;15.07;9.70;;;18.30;99.90;;;;;;4920115;29;20194;-75
2023/06/24 04:54:37;;;;;;;15.93;9.65;;;18.40;99.90;;;;;;4919858;29;20195;-75
2023/06/24 04:57:08;;;;;;;12.25;9.68;;;18.40;99.90;;;;;;4915852;29;20180;-75
2023/06/24 04:59:33;;;;;;;12.45;10.23;;;18.40;99.90;;;;;;4926076;29;20214;-76
2023/06/24 05:01:59;;;;;;;14.65;10.13;;;18.40;99.90;;;;;;4922935;29;20198;-74
2023/06/24 05:04:25;;;;;;;14.73;10.68;;;18.50;99.90;;;;;;4936541;29;20191;-76
2023/06/24 05:06:50;;;;;;;16.90;11.43;;;18.50;99.90;;;;;;4918003;29;20187;-76
2023/06/24 05:09:17;;;;;;;17.17;11.27;;;18.50;99.90;;;;;;4909960;29;20243;-75
2023/06/24 05:11:43;;;;;;;17.75;11.95;;;18.50;99.90;;;;;;4937691;29;20644;-75
2023/06/24 05:14:08;;;;;;;17.48;11.77;;;18.50;99.90;;;;;;4935151;29;20234;-76
2023/06/24 05:16:34;;;;;;;20.45;12.45;;;18.50;99.90;;;;;;4937621;29;20179;-78
2023/06/24 05:19:00;;;;;;;16.38;12.07;;;18.50;99.90;;;;;;4937926;29;20179;-75
2023/06/24 05:21:26;;;;;;;14.88;11.90;;;18.50;99.90;;;;;;4910494;29;20228;-76
2023/06/24 05:23:51;;;;;;;16.38;12.05;;;18.60;99.90;;;;;;4894238;29;20187;-79
2023/06/24 05:26:17;;;;;;;16.48;12.30;;;18.60;99.90;;;;;;4886998;29;20271;-80
2023/06/24 05:28:43;;;;;;;18.52;12.15;;;18.60;99.90;;;;;;4933149;29;20184;-79
2023/06/24 05:31:08;;;;;;;14.35;11.20;;;18.60;99.90;;;;;;4937049;29;20186;-76
2023/06/24 05:33:34;;;;;;;24.73;12.13;;;18.70;99.90;;;;;;4936627;29;20605;-76
2023/06/24 05:36:00;;;;;;;15.90;11.57;;;18.70;99.90;;;;;;4935740;29;20270;-77
2023/06/24 05:38:26;;;;;;;17.45;11.60;;;18.70;99.90;;;;;;4920190;29;20659;-76
2023/06/24 05:40:51;;;;;;;15.50;11.05;;;18.70;99.90;;;;;;4920136;29;20311;-75
2023/06/24 05:43:17;;;;;;;19.42;11.18;;;18.80;99.90;;;;;;4936953;29;20214;-78
2023/06/24 05:45:43;;;;;;;17.73;11.05;;;18.80;99.90;;;;;;4937419;29;20183;-78
2023/06/24 05:48:09;;;;;;;19.85;11.48;;;18.90;99.90;;;;;;4936900;29;20234;-75
2023/06/24 05:50:35;;;;;;;14.65;11.18;;;19.00;99.90;;;;;;4937982;29;20183;-78
2023/06/24 05:53:00;;;;;;;16.25;11.20;;;19.00;99.90;;;;;;4926193;29;20190;-78
2023/06/24 05:55:26;;;;;;;18.58;11.20;;;19.10;99.90;;;;;;4942106;29;20636;-79
2023/06/24 05:57:52;;;;;;;15.57;10.75;;;19.10;99.90;;;;;;4905772;29;20179;-79
2023/06/24 06:00:18;;;;;;;17.33;11.10;;;19.20;99.90;;;;;;4893976;29;20233;-78
2023/06/24 06:02:44;;;;;;;16.63;11.57;;;19.30;99.90;;;;;;4909101;29;20192;-78
2023/06/24 06:05:10;;;;;;;14.00;10.38;;;19.30;99.90;;;;;;4906972;29;20197;-77
2023/06/24 06:07:38;;;;;;;14.27;10.60;;;19.40;99.90;;;;;;4907593;29;20184;-78
2023/06/24 06:10:06;;;;;;;17.35;10.38;;;19.50;99.90;;;;;;4903474;29;20188;-78
2023/06/24 06:12:31;;;;;;;16.73;11.10;;;19.50;99.90;;;;;;4921317;29;20180;-79
2023/06/24 06:14:57;;;;;;;16.55;10.98;;;19.60;99.90;;;;;;4919474;29;20198;-79
2023/06/24 06:17:23;;;;;;;17.50;11.10;;;19.70;99.90;;;;;;4905603;29;20175;-85
2023/06/24 06:19:49;;;;;;;14.07;10.73;;;19.70;99.90;;;;;;4934343;29;20199;-77
2023/06/24 06:22:15;;;;;;;16.27;10.75;;;19.80;99.90;;;;;;4921363;29;20191;-77
2023/06/24 06:24:41;;;;;;;14.40;10.38;;;19.90;99.90;;;;;;4927440;29;20247;-78
2023/06/24 06:27:11;;;;;;;17.63;11.52;;;19.90;99.90;;;;;;4933751;29;20529;-78
2023/06/24 06:29:37;;;;;;;21.13;11.43;;;19.90;99.90;;;;;;4918997;29;20294;-78
2023/06/24 06:32:03;;;;;;;14.82;11.23;;;20.00;99.90;;;;;;4919074;29;20603;-80
2023/06/24 06:34:29;;;;;;;18.95;11.25;;;20.00;99.90;;;;;;4912922;29;20598;-77
2023/06/24 06:36:54;;;;;;;19.40;11.10;;;20.10;99.90;;;;;;4932545;29;20219;-77
2023/06/24 06:39:20;;;;;;;14.18;10.85;;;20.10;99.90;;;;;;4935711;29;20183;-79
2023/06/24 06:41:46;;;;;;;14.65;10.77;;;20.20;99.90;;;;;;4935796;29;20242;-77
2023/06/24 06:44:15;;;;;;;13.45;10.20;;;20.30;99.90;;;;;;4911436;29;20184;-78
2023/06/24 06:46:41;;;;;;;14.50;10.40;;;20.40;99.90;;;;;;4916954;29;20243;-77
2023/06/24 06:49:06;;;;;;;17.73;11.35;;;20.40;99.90;;;;;;4916607;29;20199;-76
2023/06/24 06:51:34;;;;;;;15.40;10.98;;;20.50;99.90;;;;;;4917043;29;20658;-77
2023/06/24 06:54:00;;;;;;;18.95;10.95;;;20.60;99.90;;;;;;4900744;29;20703;-78
2023/06/24 06:56:26;;;;;;;18.90;10.73;;;20.70;99.90;;;;;;4936119;29;20287;-75
2023/06/24 06:58:52;;;;;;;15.10;11.00;;;20.70;99.90;;;;;;4935339;29;20274;-84
2023/06/24 07:01:18;;;;;;;16.58;11.00;;;20.80;99.90;;;;;;4935752;29;20598;-76
2023/06/24 07:03:45;;;;;;;16.15;10.93;;;20.90;99.90;;;;;;4935801;29;20184;-76
2023/06/24 07:06:10;;;;;;;14.65;10.32;;;21.00;99.90;;;;;;4931615;29;20207;-77
2023/06/24 07:08:36;;;;;;;11.95;9.75;;;21.10;99.90;;;;;;4916504;29;20215;-76
2023/06/24 07:11:03;;;;;;;13.73;10.35;;;21.20;99.90;;;;;;4935372;29;20202;-75
2023/06/24 07:13:28;;;;;;;15.30;10.55;;;21.30;99.90;;;;;;4934834;29;20180;-76
2023/06/24 07:15:54;;;;;;;14.98;11.00;;;21.30;99.90;;;;;;4931133;29;20183;-76
2023/06/24 07:18:20;;;;;;;14.35;10.50;;;21.40;99.90;;;;;;4935379;29;20662;-77
2023/06/24 07:20:46;;;;;;;14.93;10.05;;;21.50;99.90;;;;;;4935294;29;20215;-77
2023/06/24 07:23:11;;;;;;;13.52;9.88;;;21.50;99.90;;;;;;4918664;29;20190;-83
2023/06/24 07:25:37;;;;;;;17.40;10.45;;;21.60;99.90;;;;;;4885654;29;20203;-78
2023/06/24 07:28:03;;;;;;;16.35;10.07;;;21.70;99.90;;;;;;4921221;29;20220;-77
2023/06/24 07:30:29;;;;;;;16.10;10.05;;;21.80;99.90;;;;;;4906200;29;20281;-77
2023/06/24 07:32:55;;;;;;;13.25;9.85;;;21.80;99.90;;;;;;4938691;29;20298;-78
2023/06/24 07:35:21;;;;;;;15.75;10.40;;;21.90;99.90;;;;;;4914017;29;20210;-83
2023/06/24 07:37:46;;;;;;;14.10;10.68;;;22.00;99.90;;;;;;4929184;29;20202;-77
2023/06/24 07:40:12;;;;;;;14.65;9.60;;;22.00;99.90;;;;;;4932111;29;20327;-75
2023/06/24 07:42:38;;;;;;;18.63;9.65;;;22.10;99.90;;;;;;4921829;29;20350;-76
2023/06/24 07:45:04;;;;;;;39.85;26.27;;;22.20;99.90;;;;;;4919296;29;20747;-75
2023/06/24 07:47:31;;;;;;;17.73;9.85;;;22.30;99.90;;;;;;4933574;29;20262;-75
2023/06/24 07:49:57;;;;;;;11.98;8.77;;;22.40;99.90;;;;;;4938926;29;20242;-76
2023/06/24 07:52:23;;;;;;;12.98;8.32;;;22.60;99.90;;;;;;4929229;29;20176;-76
2023/06/24 07:54:49;;;;;;;12.05;7.75;;;22.70;99.90;;;;;;4919610;29;20231;-76
2023/06/24 07:57:15;;;;;;;10.90;6.88;;;22.80;99.90;;;;;;4903191;29;20544;-76
2023/06/24 07:59:41;;;;;;;15.45;7.50;;;22.90;99.90;;;;;;4930703;29;20218;-76
2023/06/24 08:02:07;;;;;;;9.02;7.00;;;23.10;99.90;;;;;;4938177;29;20191;-76
2023/06/24 08:04:32;;;;;;;14.35;7.05;;;23.20;99.90;;;;;;4921058;29;20199;-76
2023/06/24 08:06:58;;;;;;;12.95;7.50;;;23.30;99.90;;;;;;4938969;29;20187;-76
2023/06/24 08:09:24;;;;;;;11.95;8.18;;;23.40;99.90;;;;;;4921519;29;20219;-76
2023/06/24 08:11:50;;;;;;;10.23;7.10;;;23.60;99.90;;;;;;4931076;29;20930;-76
2023/06/24 08:14:16;;;;;;;9.48;7.35;;;23.70;99.90;;;;;;4910249;29;20215;-77
2023/06/24 08:16:41;;;;;;;11.68;6.85;;;23.80;99.90;;;;;;4925303;29;20260;-77
2023/06/24 08:19:07;;;;;;;11.63;7.00;;;23.90;99.90;;;;;;4920243;29;20583;-75
2023/06/24 08:21:34;;;;;;;12.75;7.60;;;24.00;99.90;;;;;;4917364;29;20806;-77
2023/06/24 08:24:00;;;;;;;11.85;7.35;;;24.00;99.90;;;;;;4920239;29;20199;-75
2023/06/24 08:26:25;;;;;;;9.07;6.47;;;24.00;99.90;;;;;;4938423;29;20662;-75
2023/06/24 08:28:51;;;;;;;10.20;6.75;;;24.10;99.90;;;;;;4921127;29;20195;-75
2023/06/24 08:31:17;;;;;;;11.60;7.10;;;24.10;99.90;;;;;;4937782;29;20202;-80
2023/06/24 08:33:46;;;;;;;13.23;6.60;;;24.10;99.90;;;;;;4918970;29;20251;-75
2023/06/24 08:36:12;;;;;;;8.60;6.85;;;24.20;99.90;;;;;;4915184;29;20191;-79
2023/06/24 08:38:37;;;;;;;16.73;6.45;;;24.20;99.90;;;;;;4920833;29;20245;-76
2023/06/24 08:41:03;;;;;;;9.73;6.10;;;24.30;99.90;;;;;;4920790;29;20223;-78
2023/06/24 08:43:29;;;;;;;11.27;6.25;;;24.30;99.90;;;;;;4904981;29;20198;-79
2023/06/24 08:45:55;;;;;;;11.27;6.28;;;24.40;99.90;;;;;;4935112;29;21024;-77
2023/06/24 08:48:22;;;;;;;11.32;6.90;;;24.50;99.90;;;;;;4916321;29;20247;-76
2023/06/24 08:50:52;;;;;;;9.18;6.35;;;24.60;99.60;;;;;;4921572;29;20210;-77
2023/06/24 08:53:20;;;;;;;9.77;6.20;;;24.70;99.30;;;;;;4937879;29;20179;-76
2023/06/24 08:55:46;;;;;;;10.57;6.97;;;24.80;99.00;;;;;;4937838;29;20662;-77
2023/06/24 08:58:13;;;;;;;8.35;6.78;;;24.90;98.60;;;;;;4937277;29;20257;-77
2023/06/24 09:00:39;;;;;;;13.13;7.13;;;25.00;98.30;;;;;;4920405;29;20229;-78
2023/06/24 09:03:05;;;;;;;9.77;6.15;;;25.10;97.90;;;;;;4937737;29;20179;-79
2023/06/24 09:05:31;;;;;;;13.52;6.40;;;25.20;97.80;;;;;;4928663;29;20193;-77
2023/06/24 09:07:57;;;;;;;10.73;6.50;;;25.20;97.60;;;;;;4921370;29;20657;-77
2023/06/24 09:10:33;;;;;;;9.77;5.68;;;25.40;97.30;;;;;;4920233;29;20565;-78
2023/06/24 09:13:04;;;;;;;10.13;5.85;;;25.50;97.10;;;;;;4937005;29;20239;-77
2023/06/24 09:15:38;;;;;;;10.82;6.03;;;25.60;96.60;;;;;;4935899;29;20183;-77
2023/06/24 09:18:04;;;;;;;11.38;6.03;;;25.80;96.40;;;;;;4921596;29;20188;-77
2023/06/24 09:20:31;;;;;;;10.68;6.18;;;25.90;96.00;;;;;;4934433;29;20262;-77
2023/06/24 09:23:01;;;;;;;7.85;6.00;;;26.00;95.60;;;;;;4937585;29;20179;-76
2023/06/24 09:25:27;;;;;;;9.70;5.78;;;26.00;95.20;;;;;;4933413;29;20251;-77
2023/06/24 09:27:55;;;;;;;8.40;5.65;;;26.10;94.90;;;;;;4932393;29;20191;-78
2023/06/24 09:30:25;;;;;;;10.07;5.85;;;26.20;94.40;;;;;;4920458;29;20187;-78
2023/06/24 09:32:54;;;;;;;11.43;6.03;;;26.20;94.40;;;;;;4937549;29;20246;-78
2023/06/24 09:35:25;;;;;;;13.93;5.95;;;26.30;94.30;;;;;;4935963;29;20336;-78
2023/06/24 09:37:55;;;;;;;11.75;6.30;;;26.20;94.10;;;;;;4928286;29;20188;-78
2023/06/24 09:40:22;;;;;;;8.02;5.78;;;26.20;93.90;;;;;;4906125;29;20211;-78
2023/06/24 09:43:00;;;;;;;10.50;6.45;;;26.30;94.00;;;;;;4936989;29;20302;-78
2023/06/24 09:45:27;;;;;;;10.68;5.68;;;26.30;93.70;;;;;;4930103;29;20254;-76
2023/06/24 09:47:54;;;;;;;18.90;6.43;;;26.30;93.70;;;;;;4935937;29;20200;-77
2023/06/24 09:50:21;;;;;;;12.38;5.53;;;26.40;93.60;;;;;;4937315;29;20222;-77
2023/06/24 09:52:48;;;;;;;12.07;5.43;;;26.50;93.60;;;;;;4929648;29;20236;-77
2023/06/24 09:55:15;;;;;;;9.60;6.15;;;26.60;93.30;;;;;;4901134;29;20249;-77
2023/06/24 09:57:50;;;;;;;10.60;5.60;;;26.70;92.70;;;;;;4903137;29;20628;-77
2023/06/24 10:00:19;;;;;;;8.95;5.22;;;26.80;92.30;;;;;;4910857;29;20222;-78
2023/06/24 10:02:46;;;;;;;8.65;5.60;;;26.90;92.00;;;;;;4936914;29;20235;-79
2023/06/24 10:05:15;;;;;;;11.23;6.43;;;27.00;91.60;;;;;;4919376;29;20214;-77
2023/06/24 10:07:43;;;;;;;8.93;5.28;;;27.10;91.30;;;;;;4918132;29;20183;-78
2023/06/24 10:10:09;;;;;;;7.47;5.10;;;27.10;91.10;;;;;;4928370;29;20231;-77
2023/06/24 10:12:38;;;;;;;9.02;5.20;;;27.20;90.90;;;;;;4929480;29;20196;-79
2023/06/24 10:15:05;;;;;;;9.57;5.20;;;27.30;90.80;;;;;;4936269;29;20670;-79
2023/06/24 10:17:31;;;;;;;10.07;5.10;;;27.40;90.10;;;;;;4934932;29;20191;-80
2023/06/24 10:19:57;;;;;;;12.25;5.07;;;27.60;89.40;;;;;;4897080;29;20701;-77
2023/06/24 10:22:25;;;;;;;9.93;4.90;;;27.60;89.20;;;;;;4919481;29;20178;-80
2023/06/24 10:24:52;;;;;;;7.03;4.72;;;27.70;88.60;;;;;;4936515;29;20231;-79
2023/06/24 10:27:22;;;;;;;8.55;4.78;;;27.80;87.90;;;;;;4936466;29;20274;-84
2023/06/24 10:29:58;;;;;;;7.55;4.40;;;27.80;86.30;;;;;;4917631;29;20191;-80
2023/06/24 10:32:24;;;;;;;5.63;4.20;;;27.80;85.30;;;;;;4936874;29;20247;-79
2023/06/24 10:34:57;;;;;;;9.30;4.57;;;27.80;85.10;;;;;;4922461;29;20260;-79
2023/06/24 10:37:25;;;;;;;6.38;4.50;;;27.80;84.60;;;;;;4903765;29;20183;-80
2023/06/24 10:39:59;;;;;;;6.47;4.68;;;27.90;84.00;;;;;;4932051;29;20241;-77
2023/06/24 10:42:31;;;;;;;9.88;5.07;;;27.90;83.90;;;;;;4936187;29;20535;-76
2023/06/24 10:45:13;;;;;;;8.65;4.80;;;28.00;83.80;;;;;;4918751;29;20198;-78
2023/06/24 10:47:41;;;;;;;8.60;4.55;;;28.00;82.40;;;;;;4929585;29;20191;-78
2023/06/24 10:50:09;;;;;;;7.05;5.20;;;28.10;80.70;;;;;;4923693;29;20192;-77
2023/06/24 10:52:39;;;;;;;9.77;5.65;;;28.20;80.00;;;;;;4917789;29;20235;-77
2023/06/24 10:55:07;;;;;;;7.93;5.00;;;28.30;79.40;;;;;;4899698;29;20496;-76
2023/06/24 10:57:32;;;;;;;6.82;4.57;;;28.40;78.80;;;;;;4899247;29;20194;-77
2023/06/24 10:59:58;;;;;;;7.38;5.68;;;28.50;78.30;;;;;;4922964;29;20218;-75
2023/06/24 11:02:26;;;;;;;6.32;5.03;;;28.60;78.10;;;;;;4935657;29;20232;-78
2023/06/24 11:04:54;;;;;;;9.98;5.35;;;28.60;78.10;;;;;;4935271;29;20175;-75
2023/06/24 11:07:22;;;;;;;22.42;17.10;;;28.70;78.00;;;;;;4935097;29;20270;-75
2023/06/24 11:09:56;;;;;;;32.63;25.15;;;28.60;78.10;;;;;;4916641;29;20710;-77
2023/06/24 11:12:26;;;;;;;10.10;6.10;;;28.70;78.10;;;;;;4913386;29;20187;-76
2023/06/24 11:14:59;;;;;;;7.10;5.45;;;28.70;77.70;;;;;;4935452;29;20191;-77
2023/06/24 11:17:25;;;;;;;8.55;5.43;;;28.80;77.80;;;;;;4935309;29;20179;-76
2023/06/24 11:19:55;;;;;;;10.52;5.22;;;28.90;78.50;;;;;;4934984;29;20289;-77
2023/06/24 11:22:22;;;;;;;7.43;5.82;;;28.90;77.90;;;;;;4927987;29;20651;-79
2023/06/24 11:24:48;;;;;;;10.05;6.13;;;29.00;78.20;;;;;;4924010;29;20680;-78
2023/06/24 11:27:14;;;;;;;7.65;4.95;;;29.10;78.00;;;;;;4934637;29;20552;-78
2023/06/24 11:29:40;;;;;;;7.85;5.70;;;29.20;77.10;;;;;;4918272;29;20194;-78
2023/06/24 11:32:09;;;;;;;21.50;5.97;;;29.20;76.40;;;;;;4930153;29;20285;-78
2023/06/24 11:34:36;;;;;;;8.45;4.88;;;29.30;76.30;;;;;;4919010;29;20293;-78
2023/06/24 11:37:13;;;;;;;12.45;4.63;;;29.40;76.60;;;;;;4911787;29;20254;-77
2023/06/24 11:39:39;;;;;;;7.90;4.90;;;29.40;75.00;;;;;;4935203;29;20210;-80
2023/06/24 11:42:08;;;;;;;8.80;4.88;;;29.40;74.70;;;;;;4918330;29;20191;-77
2023/06/24 11:44:33;;;;;;;11.70;5.78;;;29.40;74.70;;;;;;4916415;29;20632;-78
2023/06/24 11:47:10;;;;;;;15.10;5.35;;;29.40;74.70;;;;;;4916444;29;20176;-77
2023/06/24 11:49:53;;;;;;;10.35;5.80;;;29.40;74.40;;;;;;4930141;29;20210;-77
2023/06/24 11:52:19;;;;;;;7.72;5.13;;;29.40;74.20;;;;;;4925419;29;20179;-77
2023/06/24 11:54:45;;;;;;;9.48;6.28;;;29.40;74.20;;;;;;4921536;29;20183;-77
2023/06/24 11:57:12;;;;;;;7.30;5.55;;;29.50;73.90;;;;;;4918563;29;20183;-77
2023/06/24 11:59:38;;;;;;;7.88;5.50;;;29.50;73.70;;;;;;4912663;29;20678;-76
2023/06/24 12:02:04;;;;;;;8.85;5.13;;;29.60;73.40;;;;;;4935221;29;20294;-76
2023/06/24 12:04:31;;;;;;;8.75;5.07;;;29.70;73.10;;;;;;4908576;29;20262;-76
2023/06/24 12:06:58;;;;;;;12.75;4.65;;;29.70;72.70;;;;;;4931139;29;20654;-77
2023/06/24 12:09:24;;;;;;;5.65;4.35;;;29.80;72.20;;;;;;4935693;29;20650;-76
2023/06/24 12:11:50;;;;;;;7.88;5.97;;;29.80;71.30;;;;;;4938544;29;20186;-77
2023/06/24 12:14:16;;;;;;;6.30;5.03;;;29.90;70.10;;;;;;4918136;29;20210;-78
2023/06/24 12:16:41;;;;;;;12.40;6.40;;;30.00;68.80;;;;;;4927362;29;20240;-77
2023/06/24 12:19:08;;;;;;;10.65;4.80;;;30.00;67.80;;;;;;4911034;29;20179;-77
2023/06/24 12:21:34;;;;;;;9.32;4.70;;;30.00;67.30;;;;;;4920335;29;20220;-77
2023/06/24 12:24:00;;;;;;;6.50;4.93;;;30.00;67.30;;;;;;4902653;29;20172;-76
2023/06/24 12:26:26;;;;;;;9.80;4.90;;;30.10;66.80;;;;;;4927594;29;20195;-77
2023/06/24 12:28:55;;;;;;;12.68;4.82;;;30.10;66.10;;;;;;4929682;29;20183;-82
2023/06/24 12:31:21;;;;;;;9.65;4.47;;;30.10;65.50;;;;;;4918483;29;20243;-76
2023/06/24 12:33:47;;;;;;;8.35;4.25;;;30.10;65.60;;;;;;4933752;29;20322;-77
2023/06/24 12:36:13;;;;;;;6.88;3.88;;;30.10;65.50;;;;;;4913055;29;20194;-76